createdAt,value
2017-09-23T00:00:32.554Z,70.20
2017-09-23T00:03:01.404Z,69.80
2017-09-23T00:05:29.500Z,71.10
2017-09-23T00:07:57.583Z,71.60
2017-09-23T00:10:26.450Z,72.10
2017-09-23T00:12:54.568Z,72.10
2017-09-23T00:15:22.642Z,71.70
2017-09-23T00:17:52.239Z,72.00
2017-09-23T00:20:20.334Z,71.10
2017-09-23T00:22:48.850Z,70.90
2017-09-23T00:25:16.962Z,70.50
2017-09-23T00:27:45.042Z,70.60
2017-09-23T00:30:13.154Z,70.10
2017-09-23T00:32:41.630Z,69.10
2017-09-23T00:35:10.522Z,68.60
2017-09-23T00:37:39.382Z,68.30
2017-09-23T00:40:07.472Z,67.50
2017-09-23T00:42:35.578Z,67.10
2017-09-23T00:45:04.082Z,66.60
2017-09-23T00:47:32.167Z,66.60
2017-09-23T00:50:00.287Z,66.10
2017-09-23T00:52:29.139Z,66.60
2017-09-23T00:54:57.222Z,65.60
2017-09-23T00:57:25.345Z,65.10
2017-09-23T00:59:53.474Z,65.10
2017-09-23T01:02:21.562Z,64.60
2017-09-23T01:04:50.423Z,64.00
2017-09-23T01:07:20.039Z,63.10
2017-09-23T01:09:48.523Z,62.10
2017-09-23T01:12:16.646Z,60.80
2017-09-23T01:14:44.740Z,60.20
2017-09-23T01:17:13.219Z,59.90
2017-09-23T01:19:41.733Z,59.90
2017-09-23T01:22:09.831Z,59.30
2017-09-23T01:24:38.691Z,59.50
2017-09-23T01:27:06.798Z,59.20
2017-09-23T01:29:34.939Z,59.50
2017-09-23T01:32:03.419Z,60.00
2017-09-23T01:34:31.516Z,60.40
2017-09-23T01:37:00.031Z,60.60
2017-09-23T01:39:29.255Z,61.50
2017-09-23T01:41:57.347Z,61.70
2017-09-23T01:44:25.455Z,62.70
2017-09-23T01:46:53.552Z,61.90
2017-09-23T01:49:21.664Z,63.60
2017-09-23T01:51:49.751Z,64.60
2017-09-23T01:54:17.871Z,65.40
2017-09-23T01:56:46.747Z,66.60
2017-09-23T01:59:14.831Z,66.90
2017-09-23T02:01:42.948Z,68.20
2017-09-23T02:04:11.803Z,68.20
2017-09-23T02:06:39.896Z,68.90
2017-09-23T02:09:08.015Z,69.50
2017-09-23T02:14:05.459Z,69.70
2017-09-23T02:16:33.619Z,70.50
2017-09-23T02:19:01.673Z,71.60
2017-09-23T02:21:29.778Z,71.70
2017-09-23T02:23:57.871Z,71.80
2017-09-23T02:28:56.475Z,71.50
2017-09-23T02:31:25.335Z,72.60
2017-09-23T02:33:53.447Z,73.10
2017-09-23T02:36:21.535Z,74.40
2017-09-23T02:38:49.658Z,74.10
2017-09-23T02:41:19.275Z,74.20
2017-09-23T02:43:47.365Z,74.70
2017-09-23T02:46:16.590Z,75.50
2017-09-23T02:51:14.844Z,76.00
2017-09-23T02:53:43.705Z,76.10
2017-09-23T02:56:11.814Z,75.40
2017-09-23T03:01:10.076Z,75.70
2017-09-23T03:03:38.163Z,74.60
2017-09-23T03:06:06.256Z,74.20
2017-09-23T03:08:35.130Z,74.60
2017-09-23T03:11:03.247Z,74.20
2017-09-23T03:13:32.506Z,76.10
2017-09-23T03:16:00.596Z,75.90
2017-09-23T03:18:29.103Z,76.60
2017-09-23T03:20:57.212Z,76.40
2017-09-23T03:23:25.333Z,75.60
2017-09-23T03:25:53.415Z,75.00
2017-09-23T03:28:21.504Z,74.70
2017-09-23T03:30:50.013Z,75.00
2017-09-23T03:33:18.130Z,75.20
2017-09-23T03:35:46.610Z,75.10
2017-09-23T03:38:15.463Z,75.50
2017-09-23T03:40:43.580Z,74.40
2017-09-23T03:43:11.668Z,75.60
2017-09-23T03:45:39.783Z,76.00
2017-09-23T03:48:07.892Z,75.30
2017-09-23T03:50:35.979Z,75.60
2017-09-23T03:53:05.263Z,76.00
2017-09-23T03:55:33.359Z,75.80
2017-09-23T03:58:01.448Z,76.30
2017-09-23T04:00:29.964Z,76.40
2017-09-23T04:02:58.081Z,75.80
2017-09-23T04:05:26.542Z,75.80
2017-09-23T04:07:54.671Z,76.10
2017-09-23T04:10:22.763Z,76.00
2017-09-23T04:15:20.227Z,76.00
2017-09-23T04:17:48.319Z,76.30
2017-09-23T04:20:17.167Z,76.40
2017-09-23T04:22:45.283Z,75.10
2017-09-23T04:25:14.158Z,75.30
2017-09-23T04:27:42.260Z,75.20
2017-09-23T04:32:39.725Z,76.20
2017-09-23T04:35:08.594Z,77.30
2017-09-23T04:37:36.698Z,76.70
2017-09-23T04:40:05.187Z,76.80
2017-09-23T04:42:33.301Z,75.90
2017-09-23T04:45:01.427Z,75.60
2017-09-23T04:49:59.646Z,75.10
2017-09-23T04:52:27.755Z,76.20
2017-09-23T04:54:56.907Z,76.80
2017-09-23T04:57:25.015Z,77.00
2017-09-23T04:59:53.112Z,75.70
2017-09-23T05:02:21.995Z,75.80
2017-09-23T05:04:50.092Z,76.70
2017-09-23T05:07:18.947Z,77.40
2017-09-23T05:09:47.464Z,77.90
2017-09-23T05:14:44.931Z,77.60
2017-09-23T05:17:13.457Z,78.10
2017-09-23T05:19:41.544Z,77.90
2017-09-23T05:22:09.637Z,77.90
2017-09-23T05:24:38.152Z,79.00
2017-09-23T05:27:07.007Z,79.20
2017-09-23T05:29:35.135Z,79.00
2017-09-23T05:32:03.992Z,79.50
2017-09-23T05:34:32.905Z,79.10
2017-09-23T05:37:02.484Z,78.80
2017-09-23T05:39:31.465Z,77.50
2017-09-23T05:41:59.547Z,76.60
2017-09-23T05:44:27.659Z,77.80
2017-09-23T05:46:56.522Z,77.10
2017-09-23T05:49:25.403Z,77.40
2017-09-23T05:51:53.508Z,76.80
2017-09-23T05:54:21.599Z,76.80
2017-09-23T05:56:49.783Z,76.90
2017-09-23T05:59:18.598Z,76.80
2017-09-23T06:01:46.706Z,76.70
2017-09-23T06:04:15.570Z,76.60
2017-09-23T06:06:43.663Z,75.70
2017-09-23T06:09:12.535Z,77.10
2017-09-23T06:11:40.627Z,76.80
2017-09-23T06:16:38.095Z,75.00
2017-09-23T06:19:06.980Z,75.00
2017-09-23T06:21:35.072Z,74.60
2017-09-23T06:24:03.620Z,74.40
2017-09-23T06:26:31.723Z,73.30
2017-09-23T06:29:00.575Z,73.00
2017-09-23T06:31:28.693Z,71.20
2017-09-23T06:33:56.791Z,70.80
2017-09-23T06:36:24.903Z,70.80
2017-09-23T06:38:53.011Z,71.40
2017-09-23T06:41:21.504Z,70.00
2017-09-23T06:43:50.407Z,69.80
2017-09-23T06:46:18.495Z,68.50
2017-09-23T06:48:46.599Z,70.00
2017-09-23T06:51:14.726Z,69.40
2017-09-23T06:53:42.823Z,68.30
2017-09-23T06:56:11.719Z,67.10
2017-09-23T06:58:40.224Z,66.10
2017-09-23T07:01:08.312Z,66.20
2017-09-23T07:03:36.827Z,64.10
2017-09-23T07:06:04.926Z,63.70
2017-09-23T07:08:33.011Z,64.10
2017-09-23T07:11:01.531Z,65.00
2017-09-23T07:13:30.411Z,65.50
2017-09-23T07:18:27.851Z,64.20
2017-09-23T07:20:57.480Z,63.90
2017-09-23T07:23:26.718Z,64.50
2017-09-23T07:25:54.807Z,62.50
2017-09-23T07:28:22.916Z,62.90
2017-09-23T07:30:51.412Z,62.00
2017-09-23T07:33:20.287Z,61.30
2017-09-23T07:35:48.375Z,61.00
2017-09-23T07:38:17.267Z,61.30
2017-09-23T07:40:46.495Z,60.00
2017-09-23T07:43:14.586Z,58.90
2017-09-23T07:45:42.700Z,59.20
2017-09-23T07:48:11.559Z,56.60
2017-09-23T07:50:39.682Z,55.40
2017-09-23T07:53:07.780Z,54.60
2017-09-23T07:55:35.867Z,52.40
2017-09-23T07:58:03.996Z,52.70
2017-09-23T08:00:32.851Z,52.90
2017-09-23T08:03:02.467Z,51.00
2017-09-23T08:05:30.587Z,49.50
2017-09-23T08:07:58.711Z,47.20
2017-09-23T08:10:26.808Z,46.90
2017-09-23T08:12:55.300Z,47.10
2017-09-23T08:15:24.200Z,48.10
2017-09-23T08:17:52.290Z,46.60
2017-09-23T08:20:20.379Z,47.30
2017-09-23T08:22:48.887Z,46.50
2017-09-23T08:25:16.995Z,47.00
2017-09-23T08:27:45.088Z,44.80
2017-09-23T08:30:13.208Z,45.60
2017-09-23T08:32:41.299Z,44.40
2017-09-23T08:37:38.755Z,43.50
2017-09-23T08:40:06.852Z,42.10
2017-09-23T08:42:35.727Z,42.20
2017-09-23T08:45:04.584Z,44.00
2017-09-23T08:47:32.710Z,43.00
2017-09-23T08:50:01.623Z,43.40
2017-09-23T08:52:29.710Z,43.00
2017-09-23T08:54:57.828Z,43.10
2017-09-23T08:57:26.700Z,43.30
2017-09-23T08:59:54.848Z,42.50
2017-09-23T09:02:22.943Z,42.20
2017-09-23T09:04:51.427Z,41.00
2017-09-23T09:07:19.539Z,41.00
2017-09-23T09:09:47.754Z,38.90
2017-09-23T09:12:16.576Z,36.90
2017-09-23T09:14:44.668Z,36.50
2017-09-23T09:17:13.546Z,34.50
2017-09-23T09:19:41.631Z,35.40
2017-09-23T09:22:10.508Z,35.50
2017-09-23T09:24:38.619Z,35.30
2017-09-23T09:27:06.733Z,34.30
2017-09-23T09:29:34.823Z,33.30
2017-09-23T09:32:02.911Z,31.90
2017-09-23T09:34:31.414Z,30.00
2017-09-23T09:36:59.531Z,31.70
2017-09-23T09:39:27.632Z,30.00
2017-09-23T09:41:56.488Z,30.50
2017-09-23T09:44:24.599Z,30.50
2017-09-23T09:49:22.088Z,28.00
2017-09-23T09:51:51.686Z,28.20
2017-09-23T09:54:20.183Z,27.90
2017-09-23T09:56:48.304Z,28.00
2017-09-23T09:59:16.400Z,27.20
2017-09-23T10:01:44.907Z,27.00
2017-09-23T10:04:13.012Z,26.80
2017-09-23T10:06:41.524Z,26.90
2017-09-23T10:09:09.644Z,26.90
2017-09-23T10:11:39.243Z,26.90
2017-09-23T10:14:07.335Z,25.70
2017-09-23T10:16:35.455Z,26.00
2017-09-23T10:19:03.547Z,25.70
2017-09-23T10:21:32.446Z,25.70
2017-09-23T10:24:00.535Z,25.30
2017-09-23T10:26:28.627Z,25.40
2017-09-23T10:28:56.724Z,25.50
2017-09-23T10:31:24.835Z,25.90
2017-09-23T10:33:53.714Z,24.40
2017-09-23T10:36:22.576Z,25.60
2017-09-23T10:38:52.196Z,25.10
2017-09-23T10:41:20.296Z,26.20
2017-09-23T10:43:48.420Z,27.90
2017-09-23T10:46:16.515Z,26.80
2017-09-23T10:48:44.615Z,25.50
2017-09-23T10:51:12.734Z,24.00
2017-09-23T10:53:41.596Z,24.70
2017-09-23T10:56:10.568Z,23.70
2017-09-23T10:58:39.444Z,25.70
2017-09-23T11:01:08.299Z,27.50
2017-09-23T11:03:36.411Z,28.20
2017-09-23T11:06:05.296Z,30.20
2017-09-23T11:08:34.152Z,32.00
2017-09-23T11:11:02.267Z,32.20
2017-09-23T11:13:31.504Z,32.50
2017-09-23T11:15:59.615Z,34.30
2017-09-23T11:18:27.711Z,35.90
2017-09-23T11:20:56.586Z,36.60
2017-09-23T11:23:24.683Z,36.70
2017-09-23T11:25:53.567Z,37.90
2017-09-23T11:28:22.422Z,39.00
2017-09-23T11:30:50.515Z,39.20
2017-09-23T11:33:18.633Z,39.30
2017-09-23T11:35:46.784Z,39.40
2017-09-23T11:38:16.388Z,40.20
2017-09-23T11:40:45.255Z,40.40
2017-09-23T11:43:13.367Z,40.60
2017-09-23T11:45:41.463Z,41.80
2017-09-23T11:48:09.575Z,42.80
2017-09-23T11:50:37.672Z,41.80
2017-09-23T11:53:06.563Z,41.90
2017-09-23T11:55:35.424Z,41.70
2017-09-23T11:58:03.512Z,41.20
2017-09-23T12:00:32.391Z,42.40
2017-09-23T12:03:00.488Z,42.00
2017-09-23T12:05:30.107Z,40.50
2017-09-23T12:10:27.590Z,40.90
2017-09-23T12:12:56.456Z,40.70
2017-09-23T12:15:25.335Z,42.10
2017-09-23T12:17:54.578Z,38.90
2017-09-23T12:20:22.671Z,39.10
2017-09-23T12:25:20.140Z,38.10
2017-09-23T12:27:48.230Z,40.00
2017-09-23T12:30:16.348Z,39.60
2017-09-23T12:35:14.275Z,34.60
2017-09-23T12:37:42.372Z,34.80
2017-09-23T12:40:10.483Z,35.40
2017-09-23T12:42:38.578Z,35.20
2017-09-23T12:45:06.686Z,35.20
2017-09-23T12:47:34.799Z,34.00
2017-09-23T12:50:02.891Z,32.60
2017-09-23T12:52:31.747Z,32.40
2017-09-23T12:55:01.382Z,31.40
2017-09-23T12:57:29.473Z,29.80
2017-09-23T12:59:57.575Z,27.80
2017-09-23T13:02:26.460Z,29.80
2017-09-23T13:04:54.555Z,28.50
2017-09-23T13:07:22.644Z,29.90
2017-09-23T13:09:51.519Z,28.90
2017-09-23T13:14:48.988Z,29.10
2017-09-23T13:17:17.079Z,29.00
2017-09-23T13:19:46.684Z,28.70
2017-09-23T13:22:15.198Z,27.10
2017-09-23T13:24:44.051Z,23.60
2017-09-23T13:27:13.672Z,21.00
2017-09-23T13:29:42.542Z,23.10
2017-09-23T13:32:11.427Z,23.80
2017-09-23T13:34:39.549Z,22.80
2017-09-23T13:37:08.411Z,21.00
2017-09-23T13:39:36.895Z,20.90
2017-09-23T13:42:05.773Z,21.30
2017-09-23T13:44:34.628Z,22.00
2017-09-23T13:47:02.730Z,18.60
2017-09-23T13:49:31.611Z,18.20
2017-09-23T13:51:59.716Z,16.30
2017-09-23T13:54:27.830Z,15.80
2017-09-23T13:56:56.687Z,15.90
2017-09-23T13:59:24.768Z,16.60
2017-09-23T14:01:53.652Z,15.50
2017-09-23T14:06:51.533Z,16.10
2017-09-23T14:09:19.620Z,15.40
2017-09-23T14:11:47.740Z,15.20
2017-09-23T14:14:17.236Z,14.40
2017-09-23T14:16:46.843Z,13.90
2017-09-23T14:19:15.008Z,13.90
2017-09-23T14:21:43.096Z,13.70
2017-09-23T14:24:11.598Z,13.00
2017-09-23T14:26:40.479Z,13.70
2017-09-23T14:29:08.563Z,13.00
2017-09-23T14:31:37.470Z,13.60
2017-09-23T14:34:06.321Z,13.60
2017-09-23T14:36:34.423Z,13.20
2017-09-23T14:39:03.275Z,12.80
2017-09-23T14:41:31.380Z,13.00
2017-09-23T14:44:00.231Z,12.80
2017-09-23T14:46:28.327Z,14.30
2017-09-23T14:48:56.432Z,16.20
2017-09-23T14:51:24.520Z,18.30
2017-09-23T14:53:53.765Z,19.10
2017-09-23T14:56:21.849Z,20.70
2017-09-23T15:01:19.304Z,22.80
2017-09-23T15:03:47.392Z,23.70
2017-09-23T15:06:15.496Z,26.10
2017-09-23T15:08:43.600Z,26.60
2017-09-23T15:11:12.116Z,25.80
2017-09-23T15:13:40.178Z,26.10
2017-09-23T15:16:08.320Z,26.90
2017-09-23T15:18:36.427Z,26.90
2017-09-23T15:21:04.544Z,28.20
2017-09-23T15:23:33.011Z,29.70
2017-09-23T15:26:01.517Z,30.20
2017-09-23T15:28:29.616Z,30.00
2017-09-23T15:30:57.724Z,30.20
2017-09-23T15:33:26.578Z,30.60
2017-09-23T15:35:54.693Z,31.80
2017-09-23T15:38:23.547Z,32.30
2017-09-23T15:40:51.626Z,32.90
2017-09-23T15:43:20.193Z,33.10
2017-09-23T15:45:48.270Z,33.30
2017-09-23T15:48:16.438Z,33.10
2017-09-23T15:50:45.288Z,33.90
2017-09-23T15:53:14.132Z,33.50
2017-09-23T15:55:42.220Z,33.30
2017-09-23T15:58:11.490Z,33.70
2017-09-23T16:00:39.550Z,33.60
2017-09-23T16:03:08.041Z,35.70
2017-09-23T16:05:36.128Z,35.90
2017-09-23T16:08:04.250Z,35.30
2017-09-23T16:10:33.095Z,36.60
2017-09-23T16:13:01.577Z,36.80
2017-09-23T16:15:29.686Z,36.60
2017-09-23T16:17:58.536Z,36.70
2017-09-23T16:20:26.623Z,35.90
2017-09-23T16:25:24.854Z,35.40
2017-09-23T16:27:52.971Z,35.90
2017-09-23T16:30:21.832Z,36.50
2017-09-23T16:32:49.924Z,36.50
2017-09-23T16:35:18.032Z,37.60
2017-09-23T16:37:46.524Z,38.50
2017-09-23T16:42:43.995Z,40.30
2017-09-23T16:45:12.112Z,41.00
2017-09-23T16:47:40.206Z,41.30
2017-09-23T16:50:08.295Z,41.90
2017-09-23T16:52:36.803Z,42.30
2017-09-23T16:55:05.745Z,43.80
2017-09-23T16:57:33.863Z,44.00
2017-09-23T17:00:02.427Z,44.50
2017-09-23T17:02:30.483Z,44.80
2017-09-23T17:04:58.577Z,45.20
2017-09-23T17:07:26.687Z,45.70
2017-09-23T17:09:55.163Z,46.40
2017-09-23T17:12:23.279Z,46.70
2017-09-23T17:14:51.359Z,47.30
2017-09-23T17:17:19.435Z,47.90
2017-09-23T17:19:48.337Z,48.80
2017-09-23T17:22:16.427Z,48.70
2017-09-23T17:24:44.508Z,48.60
2017-09-23T17:27:13.376Z,50.10
2017-09-23T17:29:41.461Z,49.80
2017-09-23T17:32:09.959Z,50.20
2017-09-23T17:37:07.438Z,51.60
2017-09-23T17:39:35.532Z,52.00
2017-09-23T17:42:03.630Z,52.20
2017-09-23T17:44:31.731Z,52.60
2017-09-23T17:47:00.587Z,55.00
2017-09-23T17:54:27.807Z,53.70
2017-09-23T17:56:57.423Z,53.60
2017-09-23T17:59:27.043Z,52.90
2017-09-23T18:01:55.532Z,52.70
2017-09-23T18:04:23.644Z,52.60
2017-09-23T18:06:51.735Z,53.10
2017-09-23T18:09:19.852Z,53.30
2017-09-23T18:11:48.340Z,54.00
2017-09-23T18:14:16.459Z,53.30
2017-09-23T18:16:44.551Z,54.00
2017-09-23T18:19:13.407Z,54.20
2017-09-23T18:21:41.566Z,54.50
2017-09-23T18:24:09.685Z,54.70
2017-09-23T18:26:37.798Z,54.90
2017-09-23T18:29:05.887Z,54.60
2017-09-23T18:31:33.979Z,53.80
2017-09-23T18:34:02.093Z,54.00
2017-09-23T18:36:31.687Z,54.10
2017-09-23T18:39:00.572Z,53.80
2017-09-23T18:41:28.663Z,54.00
2017-09-23T18:43:57.539Z,53.80
2017-09-23T18:46:26.767Z,54.30
2017-09-23T18:48:55.283Z,55.30
2017-09-23T18:51:24.155Z,55.40
2017-09-23T18:53:52.631Z,56.20
2017-09-23T18:56:21.511Z,56.30
2017-09-23T18:58:49.642Z,56.50
2017-09-23T19:01:18.550Z,56.80
2017-09-23T19:03:47.423Z,57.40
2017-09-23T19:06:15.539Z,57.40
2017-09-23T19:08:43.631Z,58.00
2017-09-23T19:11:11.739Z,58.30
2017-09-23T19:13:39.835Z,58.50
2017-09-23T19:16:08.731Z,59.30
2017-09-23T19:18:37.587Z,59.30
2017-09-23T19:21:07.206Z,58.60
2017-09-23T19:23:35.300Z,57.70
2017-09-23T19:26:04.180Z,58.10
2017-09-23T19:28:34.184Z,57.40
2017-09-23T19:31:02.284Z,57.60
2017-09-23T19:33:31.915Z,57.70
2017-09-23T19:36:00.011Z,57.10
2017-09-23T19:38:28.131Z,57.20
2017-09-23T19:40:57.642Z,57.00
2017-09-23T19:43:26.516Z,56.90
2017-09-23T19:45:54.648Z,56.80
2017-09-23T19:48:23.511Z,56.70
2017-09-23T19:50:51.633Z,56.50
2017-09-23T19:53:19.748Z,56.60
2017-09-23T19:55:48.640Z,57.30
2017-09-23T20:00:46.544Z,57.30
2017-09-23T20:03:14.664Z,58.20
2017-09-23T20:05:42.793Z,58.00
2017-09-23T20:10:46.483Z,58.00
2017-09-23T20:13:15.347Z,58.20
2017-09-23T20:15:43.440Z,58.20
2017-09-23T20:18:11.955Z,58.70
2017-09-23T20:20:40.050Z,58.70
2017-09-23T20:23:08.164Z,59.40
2017-09-23T20:25:37.039Z,60.50
2017-09-23T20:28:06.721Z,61.50
2017-09-23T20:30:34.798Z,61.70
2017-09-23T20:33:03.284Z,62.70
2017-09-23T20:35:31.392Z,63.20
2017-09-23T20:38:00.340Z,64.20
2017-09-23T20:40:28.411Z,63.30
2017-09-23T20:42:56.510Z,62.80
2017-09-23T20:45:25.027Z,62.90
2017-09-23T20:47:53.123Z,62.10
2017-09-23T20:52:51.740Z,62.20
2017-09-23T20:55:19.892Z,61.60
2017-09-23T20:57:47.987Z,62.10
2017-09-23T21:00:16.471Z,62.20
2017-09-23T21:02:44.592Z,61.40
2017-09-23T21:05:13.827Z,62.20
2017-09-23T21:07:41.939Z,62.20
2017-09-23T21:10:10.064Z,63.10
2017-09-23T21:12:38.550Z,62.20
2017-09-23T21:15:06.668Z,62.20
2017-09-23T21:17:34.755Z,63.70
2017-09-23T21:20:03.647Z,64.80
2017-09-23T21:22:31.736Z,64.60
2017-09-23T21:24:59.847Z,64.50
2017-09-23T21:27:27.947Z,64.30
2017-09-23T21:29:57.542Z,65.30
2017-09-23T21:32:26.434Z,64.90
2017-09-23T21:34:54.928Z,65.20
2017-09-23T21:37:23.018Z,64.60
2017-09-23T21:42:20.549Z,65.30
2017-09-23T21:47:17.971Z,65.10
2017-09-23T21:49:46.479Z,65.60
2017-09-23T21:52:14.572Z,64.70
2017-09-23T21:54:42.705Z,65.10
2017-09-23T21:57:11.556Z,65.20
2017-09-23T21:59:39.660Z,64.70
2017-09-23T22:02:08.164Z,65.00
2017-09-23T22:04:36.655Z,65.50
2017-09-23T22:07:05.567Z,65.60
2017-09-23T22:09:33.635Z,65.00
2017-09-23T22:12:01.751Z,65.40
2017-09-23T22:14:29.848Z,65.30
2017-09-23T22:16:57.943Z,65.90
2017-09-23T22:19:27.583Z,65.80
2017-09-23T22:21:56.435Z,65.80
2017-09-23T22:24:25.314Z,66.30
2017-09-23T22:26:53.416Z,66.80
2017-09-23T22:29:21.528Z,66.60
2017-09-23T22:31:49.640Z,67.40
2017-09-23T22:34:18.505Z,66.30
2017-09-23T22:36:47.374Z,67.50
2017-09-23T22:39:15.507Z,67.10
2017-09-23T22:41:43.631Z,67.30
2017-09-23T22:44:11.691Z,67.30
2017-09-23T22:46:39.820Z,66.90
2017-09-23T22:49:07.912Z,66.30
2017-09-23T22:51:35.999Z,66.60
2017-09-23T22:54:05.619Z,67.50
2017-09-23T22:56:33.707Z,67.90
2017-09-23T22:59:02.589Z,67.90
2017-09-23T23:01:31.451Z,67.20
2017-09-23T23:04:00.331Z,66.90
2017-09-23T23:06:28.438Z,67.50
2017-09-23T23:08:56.545Z,67.80
2017-09-23T23:11:25.406Z,68.50
2017-09-23T23:13:53.894Z,67.90
2017-09-23T23:16:22.771Z,67.90
2017-09-23T23:21:21.752Z,66.80
2017-09-23T23:23:49.879Z,67.80
2017-09-23T23:26:18.743Z,68.40
2017-09-23T23:28:46.907Z,68.60
2017-09-23T23:31:15.011Z,69.00
2017-09-23T23:33:43.880Z,69.30
2017-09-23T23:38:41.343Z,68.80
2017-09-23T23:41:09.455Z,68.60
2017-09-23T23:43:38.349Z,68.30
2017-09-23T23:46:07.204Z,70.00
2017-09-23T23:48:35.326Z,68.20
2017-09-23T23:51:03.425Z,69.30
2017-09-23T23:53:31.521Z,69.20
2017-09-23T23:58:29.000Z,69.80
